Hellespont Daring — V7QX9 — position and weather

sailwx.info

Track history (hours):
 
Tides and Currents Weather Stations Pressure Air Temp Water Temp Dewpoint Dewpoint Depression Visibility Wind Speed Wind Dir Waves Ship Positions

Hellespont Daring

Last reported at 2018-Jun-10 16:08 UTC. Time now 2018-Jun-25 02:13 UTC.
Position S 05°14' E 011°20'.
Warning: this ship's position is 14 days out of date.

Length 73 m; draft 5.5 m.

Type: Other ship. MMSI: 538007803.

Date/timePositionNaut miles runAvg speedWind from/ knotsBaromVisibWave heightAir tempDewpointWater temp
2018-Jun-10 16:08S 05°14' E 011°20'0 0.0
2018-Jun-10 15:36S 05°14' E 011°20'0 0.0
2018-Jun-10 15:28S 05°14' E 011°20'0 0.0
2018-Jun-10 14:57S 05°14' E 011°20'0 0.0
2018-Jun-10 14:29S 05°14' E 011°20'23 1.3
2018-Jun-09 20:52S 04°57' E 011°36'3 7.2
2018-Jun-09 20:30S 04°55' E 011°37'4 6.9
2018-Jun-09 19:59S 04°53' E 011°40'3 7.0
2018-Jun-09 19:29S 04°51' E 011°42'4 6.9
2018-Jun-09 18:58S 04°48' E 011°45'3 6.9
2018-Jun-09 18:30S 04°46' E 011°48'3 5.6
2018-Jun-09 18:00S 04°46' E 011°51'0 0.9
2018-Jun-09 17:30S 04°47' E 011°51'0 0.0
2018-Jun-09 17:00S 04°47' E 011°51'0 0.0
2018-Jun-09 16:21S 04°47' E 011°51'0 0.0
2018-Jun-09 15:31S 04°47' E 011°51'0 0.0
2018-Jun-09 14:58S 04°47' E 011°51'  
2018-Jun-06 22:16S 05°17' E 011°23'0 0.1
2018-Jun-06 21:58S 05°17' E 011°23'  
Track history (hours):
 
Tides and Currents Weather Stations Pressure Air Temp Water Temp Dewpoint Dewpoint Depression Visibility Wind Speed Wind Dir Waves Ship Positions

Hellespont Daring

Last reported at 2018-Jun-10 16:08 UTC. Time now 2018-Jun-25 02:13 UTC.
Position S 05°14' E 011°20'.
Warning: this ship's position is 14 days out of date.

Length 73 m; draft 5.5 m.

Type: Other ship. MMSI: 538007803.

Date/timePositionNaut miles runAvg speedWind from/ knotsBaromVisibWave heightAir tempDewpointWater temp
2018-Jun-10 16:08S 05°14' E 011°20'0 0.0
2018-Jun-10 15:36S 05°14' E 011°20'0 0.0
2018-Jun-10 15:28S 05°14' E 011°20'0 0.0
2018-Jun-10 14:57S 05°14' E 011°20'0 0.0
2018-Jun-10 14:29S 05°14' E 011°20'23 1.3
2018-Jun-09 20:52S 04°57' E 011°36'3 7.2
2018-Jun-09 20:30S 04°55' E 011°37'4 6.9
2018-Jun-09 19:59S 04°53' E 011°40'3 7.0
2018-Jun-09 19:29S 04°51' E 011°42'4 6.9
2018-Jun-09 18:58S 04°48' E 011°45'3 6.9
2018-Jun-09 18:30S 04°46' E 011°48'3 5.6
2018-Jun-09 18:00S 04°46' E 011°51'0 0.9
2018-Jun-09 17:30S 04°47' E 011°51'0 0.0
2018-Jun-09 17:00S 04°47' E 011°51'0 0.0
2018-Jun-09 16:21S 04°47' E 011°51'0 0.0
2018-Jun-09 15:31S 04°47' E 011°51'0 0.0
2018-Jun-09 14:58S 04°47' E 011°51'  
2018-Jun-06 22:16S 05°17' E 011°23'0 0.1
2018-Jun-06 21:58S 05°17' E 011°23'  

Dump ship's entire track history